Time;durP1;ratioP1;P1;durP2;ratioP2;P2;SDS_P1;SDS_P2;PMS_P1;PMS_P2;Temp;Humidity;BMP_temperature;BMP_pressure;BME280_temperature;BME280_humidity;BME280_pressure;Samples;Min_cycle;Max_cycle;Signal;HPM_P1;HPM_P2
2021/10/10 00:01:47;;;;;;;;;;;;;;;4.14;66.75;99459.44;1625269;87;24438;-87
2021/10/10 00:04:13;;;;;;;;;;;;;;;4.13;66.78;99461.62;1630776;87;20297;-84
2021/10/10 00:06:40;;;;;;;;;;;;;;;4.17;66.85;99458.04;1625033;87;24743;-85
2021/10/10 00:09:06;;;;;;;;;;;;;;;3.98;66.86;99454.27;1633423;87;22030;-85
2021/10/10 00:11:32;;;;;;;;;;;;;;;3.83;66.88;99459.83;1630102;87;26038;-86
2021/10/10 00:14:01;;;;;;;;;;;;;;;3.73;66.92;99457.49;1640693;85;25048;-83
2021/10/10 00:16:27;;;;;;;;;;;;;;;3.74;66.96;99460.49;1631600;86;20521;-88
2021/10/10 00:18:53;;;;;;;;;;;;;;;3.89;67.05;99461.82;1637639;86;24976;-86
2021/10/10 00:21:19;;;;;;;;;;;;;;;3.96;67.15;99459.48;1637200;86;22533;-83
2021/10/10 00:23:45;;;;;;;;;;;;;;;3.91;67.22;99463.94;1634141;86;26919;-85
2021/10/10 00:26:15;;;;;;;;;;;;;;;3.86;67.26;99454.15;1631185;86;24415;-84
2021/10/10 00:28:41;;;;;;;;;;;;;;;3.94;67.33;99456.07;1632557;86;20560;-84
2021/10/10 00:31:08;;;;;;;;;;;;;;;3.85;67.35;99461.95;1623937;85;24964;-85
2021/10/10 00:33:34;;;;;;;;;;;;;;;3.86;67.38;99455.88;1634878;86;22023;-87
2021/10/10 00:36:00;;;;;;;;;;;;;;;3.94;67.44;99453.48;1630495;86;26047;-87
2021/10/10 00:38:26;;;;;;;;;;;;;;;3.88;67.47;99452.79;1639107;86;24488;-85
2021/10/10 00:40:52;;;;;;;;;;;;;;;3.73;67.48;99449.73;1632985;86;20238;-85
2021/10/10 00:43:18;;;;;;;;;;;;;;;3.60;67.47;99450.09;1634614;86;24747;-86
2021/10/10 00:45:49;;;;;;;;;;;;;;;3.47;67.48;99443.52;1633573;86;22019;-86
2021/10/10 00:48:15;;;;;;;;;;;;;;;3.41;67.48;99447.55;1627847;85;26078;-83
2021/10/10 00:50:41;;;;;;;;;;;;;;;3.35;67.52;99448.55;1630908;86;24491;-87
2021/10/10 00:53:08;;;;;;;;;;;;;;;3.28;67.55;99440.52;1632789;86;20445;-86
2021/10/10 00:55:38;;;;;;;;;;;;;;;3.24;67.59;99442.34;1624398;86;24679;-85
2021/10/10 00:58:06;;;;;;;;;;;;;;;3.22;67.66;99440.23;1638323;86;22226;-87
2021/10/10 01:00:32;;;;;;;;;;;;;;;3.35;67.80;99438.20;1605954;86;25854;-87
2021/10/10 01:02:59;;;;;;;;;;;;;;;3.48;67.91;99437.02;1625257;86;24449;-87
2021/10/10 01:05:25;;;;;;;;;;;;;;;3.66;68.04;99437.82;1627028;86;20522;-84
2021/10/10 01:07:52;;;;;;;;;;;;;;;3.60;68.15;99427.63;1642397;85;25079;-85
2021/10/10 01:10:22;;;;;;;;;;;;;;;3.49;68.17;99425.75;1633383;86;22084;-84
2021/10/10 01:12:48;;;;;;;;;;;;;;;3.45;68.24;99434.49;1634506;86;26804;-85
2021/10/10 01:15:14;;;;;;;;;;;;;;;3.49;68.27;99439.98;1634016;86;24359;-86
2021/10/10 01:17:41;;;;;;;;;;;;;;;3.61;68.37;99433.22;1632118;86;20319;-84
2021/10/10 01:20:10;;;;;;;;;;;;;;;3.57;68.41;99432.04;1627140;86;24832;-87
2021/10/10 01:22:42;;;;;;;;;;;;;;;3.57;68.44;99429.02;1640600;86;22066;-87
2021/10/10 01:25:09;;;;;;;;;;;;;;;3.45;68.44;99430.61;1633224;86;26589;-83
2021/10/10 01:27:35;;;;;;;;;;;;;;;3.31;68.43;99429.68;1603376;86;23853;-83
2021/10/10 01:30:01;;;;;;;;;;;;;;;3.25;68.41;99425.09;1630046;86;20182;-83
2021/10/10 01:32:27;;;;;;;;;;;;;;;3.25;68.42;99427.23;1636816;86;24791;-83
2021/10/10 01:34:53;;;;;;;;;;;;;;;3.23;68.44;99429.00;1635275;86;20923;-83
2021/10/10 01:37:19;;;;;;;;;;;;;;;3.29;68.49;99424.13;1638989;86;26081;-86
2021/10/10 01:39:48;;;;;;;;;;;;;;;3.43;68.56;99423.35;1662622;85;24455;-86
2021/10/10 01:42:14;;;;;;;;;;;;;;;3.35;68.60;99425.27;1632495;86;20538;-83
2021/10/10 01:44:40;;;;;;;;;;;;;;;3.24;68.59;99422.09;1633968;86;24871;-84
2021/10/10 01:47:06;;;;;;;;;;;;;;;3.08;68.56;99420.33;1633481;86;22032;-85
2021/10/10 01:49:34;;;;;;;;;;;;;;;2.91;68.54;99415.55;1643566;86;26004;-86
2021/10/10 01:52:01;;;;;;;;;;;;;;;2.77;68.49;99421.49;1638732;86;24525;-86
2021/10/10 01:54:27;;;;;;;;;;;;;;;2.64;68.47;99416.18;1638408;86;20440;-87
2021/10/10 01:56:53;;;;;;;;;;;;;;;2.55;68.48;99408.64;1636241;86;24763;-85
2021/10/10 01:59:19;;;;;;;;;;;;;;;2.53;68.53;99411.25;1629683;86;21957;-87
2021/10/10 02:01:48;;;;;;;;;;;;;;;2.52;68.58;99413.42;1634998;86;26073;-84
2021/10/10 02:04:14;;;;;;;;;;;;;;;2.47;68.63;99410.09;1643945;86;24446;-83
2021/10/10 02:06:43;;;;;;;;;;;;;;;2.40;68.68;99401.23;1634216;86;20170;-85
2021/10/10 02:09:09;;;;;;;;;;;;;;;2.37;68.75;99402.57;1637701;86;24808;-87
2021/10/10 02:11:36;;;;;;;;;;;;;;;2.39;68.83;99407.27;1634535;86;21965;-88
2021/10/10 02:14:02;;;;;;;;;;;;;;;2.40;68.92;99408.98;1638898;86;26023;-84
2021/10/10 02:16:28;;;;;;;;;;;;;;;2.40;69.01;99408.98;1626690;86;24551;-84
2021/10/10 02:18:54;;;;;;;;;;;;;;;2.38;69.10;99404.28;1637459;86;20270;-83
2021/10/10 02:21:20;;;;;;;;;;;;;;;2.37;69.16;99406.45;1634538;86;24779;-86
2021/10/10 02:23:46;;;;;;;;;;;;;;;2.33;69.24;99400.50;1641669;86;22040;-87
2021/10/10 02:26:15;;;;;;;;;;;;;;;2.31;69.32;99405.28;1639392;86;26627;-86
2021/10/10 02:28:41;;;;;;;;;;;;;;;2.28;69.37;99400.20;1639638;86;24838;-86
2021/10/10 02:31:08;;;;;;;;;;;;;;;2.24;69.42;99398.09;1637828;86;20326;-84
2021/10/10 02:33:34;;;;;;;;;;;;;;;2.20;69.50;99409.81;1658574;84;25578;-84
2021/10/10 02:36:00;;;;;;;;;;;;;;;2.15;69.55;99412.50;1614376;87;22059;-82
2021/10/10 02:38:26;;;;;;;;;;;;;;;2.12;69.61;99407.41;1611760;87;25938;-87
2021/10/10 02:40:52;;;;;;;;;;;;;;;2.07;69.67;99410.53;1609201;87;24463;-85
2021/10/10 02:43:19;;;;;;;;;;;;;;;1.99;69.73;99406.80;1610857;87;20375;-87
2021/10/10 02:45:45;;;;;;;;;;;;;;;1.98;69.82;99406.82;1614632;87;24825;-84
2021/10/10 02:48:11;;;;;;;;;;;;;;;2.05;69.92;99409.70;1625858;87;22191;-83
2021/10/10 02:50:37;;;;;;;;;;;;;;;2.23;70.06;99407.19;1614010;87;26890;-84
2021/10/10 02:53:03;;;;;;;;;;;;;;;2.32;70.20;99401.82;1621214;87;24700;-87
2021/10/10 02:55:29;;;;;;;;;;;;;;;2.41;70.32;99396.02;1619061;88;20234;-87
2021/10/10 02:57:55;;;;;;;;;;;;;;;2.48;70.41;99389.84;1613957;86;24732;-85
2021/10/10 03:00:21;;;;;;;;;;;;;;;2.58;70.52;99386.59;1653650;85;21907;-84
2021/10/10 03:02:48;;;;;;;;;;;;;;;2.66;70.54;99377.39;1619773;88;26052;-83
2021/10/10 03:05:14;;;;;;;;;;;;;;;2.75;70.61;99388.36;1619039;87;24556;-83
2021/10/10 03:07:40;;;;;;;;;;;;;;;2.67;70.61;99383.83;1616272;87;20231;-86
2021/10/10 03:10:12;;;;;;;;;;;;;;;2.63;70.61;99377.00;1612003;87;24733;-87
2021/10/10 03:12:43;;;;;;;;;;;;;;;2.64;70.63;99377.86;1617499;86;22151;-84
2021/10/10 03:15:10;;;;;;;;;;;;;;;2.76;70.66;99371.97;1605245;87;26029;-86
2021/10/10 03:17:36;;;;;;;;;;;;;;;2.90;70.71;99371.19;1623450;87;24478;-86
2021/10/10 03:20:08;;;;;;;;;;;;;;;3.03;70.75;99371.75;1621986;88;20230;-87
2021/10/10 03:22:35;;;;;;;;;;;;;;;3.05;70.76;99369.99;1621515;87;25542;-86
2021/10/10 03:25:05;;;;;;;;;;;;;;;3.04;70.75;99362.27;1625102;88;22091;-86
2021/10/10 03:27:31;;;;;;;;;;;;;;;3.01;70.76;99367.49;1623806;88;26185;-83
2021/10/10 03:29:58;;;;;;;;;;;;;;;3.06;70.77;99360.47;1626687;88;25253;-84
2021/10/10 03:32:24;;;;;;;;;;;;;;;3.11;70.75;99360.76;1652074;85;20251;-86
2021/10/10 03:34:50;;;;;;;;;;;;;;;3.13;70.75;99360.29;1620736;86;24796;-87
2021/10/10 03:37:16;;;;;;;;;;;;;;;3.06;70.72;99356.59;1626600;86;21955;-87
2021/10/10 03:39:46;;;;;;;;;;;;;;;3.06;70.71;99358.73;1588779;88;26143;-84
2021/10/10 03:42:10;;;;;;;;;;;;;;;3.07;70.72;99353.97;1626714;86;24202;-84
2021/10/10 03:44:38;;;;;;;;;;;;;;;3.09;70.68;99352.66;1626509;86;20221;-86
2021/10/10 03:47:04;;;;;;;;;;;;;;;3.08;70.66;99345.78;1626086;86;24738;-86
2021/10/10 03:49:31;;;;;;;;;;;;;;;3.08;70.62;99348.36;1624853;86;22051;-86
2021/10/10 03:51:57;;;;;;;;;;;;;;;3.04;70.59;99349.33;1623343;86;26057;-86
2021/10/10 03:56:52;;;;;;;;;;;;;;;3.03;70.56;99347.63;1650352;85;20362;-85
2021/10/10 03:59:21;;;;;;;;;;;;;;;3.00;70.53;99344.66;1626671;86;24826;-84
2021/10/10 04:01:48;;;;;;;;;;;;;;;2.97;70.51;99352.95;1624485;88;22175;-87
2021/10/10 04:04:17;;;;;;;;;;;;;;;2.93;70.48;99352.19;1625782;86;26058;-84
2021/10/10 04:06:43;;;;;;;;;;;;;;;2.94;70.46;99348.72;1625398;86;24427;-85
2021/10/10 04:09:09;;;;;;;;;;;;;;;2.93;70.46;99345.72;1626293;86;20266;-83
2021/10/10 04:11:35;;;;;;;;;;;;;;;2.85;70.45;99344.61;1627600;88;24750;-83
2021/10/10 04:14:01;;;;;;;;;;;;;;;2.84;70.47;99345.92;1629779;86;22061;-82
2021/10/10 04:16:27;;;;;;;;;;;;;;;2.70;70.46;99343.69;1631212;86;26118;-87
2021/10/10 04:18:53;;;;;;;;;;;;;;;2.66;70.44;99345.94;1630891;86;24447;-86
2021/10/10 04:21:19;;;;;;;;;;;;;;;2.72;70.47;99339.78;1632273;86;20157;-84
2021/10/10 04:23:45;;;;;;;;;;;;;;;2.76;70.50;99343.55;1631414;86;24700;-84
2021/10/10 04:26:12;;;;;;;;;;;;;;;2.79;70.52;99344.75;1631411;86;22055;-87
2021/10/10 04:28:38;;;;;;;;;;;;;;;2.81;70.54;99337.82;1629542;86;25973;-86
2021/10/10 04:31:04;;;;;;;;;;;;;;;2.82;70.56;99339.52;1631408;87;25129;-86
2021/10/10 04:33:30;;;;;;;;;;;;;;;2.83;70.57;99332.18;1633416;86;20251;-83
2021/10/10 04:35:57;;;;;;;;;;;;;;;2.81;70.58;99339.55;1631442;87;24735;-85
2021/10/10 04:38:23;;;;;;;;;;;;;;;2.86;70.61;99337.27;1631283;87;22141;-87
2021/10/10 04:40:49;;;;;;;;;;;;;;;2.79;70.60;99338.28;1630664;87;26054;-86
2021/10/10 04:43:15;;;;;;;;;;;;;;;2.79;70.60;99333.12;1630151;86;24615;-82
2021/10/10 04:45:41;;;;;;;;;;;;;;;2.86;70.63;99338.55;1630546;87;20212;-86
2021/10/10 04:48:07;;;;;;;;;;;;;;;2.93;70.64;99340.55;1629327;86;24723;-86
2021/10/10 04:50:33;;;;;;;;;;;;;;;2.92;70.64;99338.84;1631368;86;21840;-83
2021/10/10 04:52:59;;;;;;;;;;;;;;;2.90;70.64;99336.73;1630634;86;26037;-86
2021/10/10 04:55:26;;;;;;;;;;;;;;;2.91;70.61;99337.14;1631189;86;24530;-85
2021/10/10 04:57:52;;;;;;;;;;;;;;;2.89;70.62;99337.17;1629411;86;20495;-86
2021/10/10 05:00:18;;;;;;;;;;;;;;;2.91;70.62;99338.00;1630072;86;24724;-84
2021/10/10 05:02:44;;;;;;;;;;;;;;;2.93;70.63;99341.84;1631242;86;21974;-86
2021/10/10 05:05:10;;;;;;;;;;;;;;;2.92;70.60;99336.27;1629956;86;26132;-85
2021/10/10 05:07:36;;;;;;;;;;;;;;;2.80;70.58;99333.53;1630564;86;24535;-85
2021/10/10 05:10:03;;;;;;;;;;;;;;;2.69;70.58;99333.38;1631851;86;20254;-83
2021/10/10 05:12:30;;;;;;;;;;;;;;;2.70;70.58;99337.23;1632466;86;24725;-86
2021/10/10 05:14:56;;;;;;;;;;;;;;;2.67;70.57;99336.46;1629063;86;22052;-85
2021/10/10 05:17:28;;;;;;;;;;;;;;;2.71;70.60;99338.93;1630636;86;25653;-84
2021/10/10 05:19:54;;;;;;;;;;;;;;;2.65;70.60;99347.27;1629761;86;25152;-83
2021/10/10 05:22:20;;;;;;;;;;;;;;;2.53;70.59;99336.33;1628041;86;20355;-87
2021/10/10 05:24:46;;;;;;;;;;;;;;;2.44;70.57;99333.11;1630240;86;24948;-87
2021/10/10 05:27:12;;;;;;;;;;;;;;;2.37;70.56;99335.41;1632061;87;20844;-82
2021/10/10 05:29:38;;;;;;;;;;;;;;;2.36;70.56;99338.44;1631568;86;26202;-84
2021/10/10 05:32:05;;;;;;;;;;;;;;;2.47;70.62;99336.47;1631665;86;20933;-86
2021/10/10 05:34:32;;;;;;;;;;;;;;;2.53;70.66;99327.72;1634842;86;20489;-87
2021/10/10 05:36:58;;;;;;;;;;;;;;;2.64;70.71;99339.95;1630884;86;24945;-84
2021/10/10 05:39:25;;;;;;;;;;;;;;;2.70;70.75;99336.38;1629822;87;20281;-87
2021/10/10 05:41:52;;;;;;;;;;;;;;;2.73;70.79;99341.02;1631325;86;25969;-87
2021/10/10 05:44:18;;;;;;;;;;;;;;;2.80;70.82;99340.43;1630618;86;25401;-87
2021/10/10 05:46:44;;;;;;;;;;;;;;;2.86;70.84;99339.84;1630676;86;20252;-87
2021/10/10 05:49:10;;;;;;;;;;;;;;;2.92;70.84;99339.70;1630391;86;24815;-83
2021/10/10 05:51:36;;;;;;;;;;;;;;;2.92;70.84;99340.14;1631367;87;21959;-84
2021/10/10 05:54:04;;;;;;;;;;;;;;;2.94;70.83;99340.52;1663588;84;26383;-87
2021/10/10 05:56:32;;;;;;;;;;;;;;;2.98;70.85;99344.31;1631196;86;25390;-85
2021/10/10 05:59:06;;;;;;;;;;;;;;;2.97;70.85;99338.29;1630820;86;20228;-83
2021/10/10 06:01:30;;;;;;;;;;;;;;;3.00;70.87;99338.20;1631303;86;24875;-85
2021/10/10 06:03:56;;;;;;;;;;;;;;;3.07;70.91;99344.07;1631569;86;21944;-85
2021/10/10 06:06:22;;;;;;;;;;;;;;;3.14;70.92;99337.87;1631781;86;26007;-87
2021/10/10 06:08:48;;;;;;;;;;;;;;;3.09;70.94;99343.60;1633740;86;24419;-85
2021/10/10 06:11:14;;;;;;;;;;;;;;;3.00;70.95;99338.67;1631511;86;20247;-86
2021/10/10 06:13:40;;;;;;;;;;;;;;;3.08;71.00;99344.05;1631442;85;24728;-87
2021/10/10 06:16:06;;;;;;;;;;;;;;;3.15;71.05;99337.84;1656812;85;20246;-85
2021/10/10 06:18:33;;;;;;;;;;;;;;;3.10;71.05;99338.84;1642289;85;25437;-82
2021/10/10 06:20:59;;;;;;;;;;;;;;;3.00;71.09;99330.44;1642584;85;24472;-83
2021/10/10 06:23:25;;;;;;;;;;;;;;;2.95;71.12;99329.70;1659192;85;20225;-83
2021/10/10 06:25:52;;;;;;;;;;;;;;;2.89;71.17;99334.59;1656496;85;24931;-87
2021/10/10 06:28:19;;;;;;;;;;;;;;;2.82;71.19;99325.75;1659725;85;22068;-87
2021/10/10 06:30:45;;;;;;;;;;;;;;;2.77;71.22;99328.45;1650558;86;26111;-87
2021/10/10 06:33:12;;;;;;;;;;;;;;;2.69;71.26;99329.50;1644439;86;24604;-83
2021/10/10 06:35:38;;;;;;;;;;;;;;;2.60;71.31;99342.20;1652634;85;20568;-87
2021/10/10 06:38:04;;;;;;;;;;;;;;;2.64;71.38;99340.39;1652177;86;24807;-85
2021/10/10 06:40:30;;;;;;;;;;;;;;;2.76;71.51;99340.96;1644647;86;22042;-84
2021/10/10 06:42:56;;;;;;;;;;;;;;;2.87;71.65;99332.95;1650713;86;25998;-87
2021/10/10 06:45:22;;;;;;;;;;;;;;;2.82;71.76;99329.19;1660576;86;24531;-87
2021/10/10 06:47:48;;;;;;;;;;;;;;;2.75;71.84;99330.20;1627880;87;20236;-87
2021/10/10 06:50:17;;;;;;;;;;;;;;;2.75;71.92;99337.11;1653884;85;24756;-83
2021/10/10 06:52:44;;;;;;;;;;;;;;;2.69;72.00;99334.67;1649473;86;22643;-83
2021/10/10 06:55:10;;;;;;;;;;;;;;;2.64;72.08;99341.24;1655153;86;26140;-84
2021/10/10 06:57:36;;;;;;;;;;;;;;;2.65;72.15;99341.66;1649296;86;24500;-85
2021/10/10 07:00:02;;;;;;;;;;;;;;;2.65;72.25;99344.68;1656047;85;20527;-86
2021/10/10 07:02:29;;;;;;;;;;;;;;;2.64;72.35;99344.27;1655164;86;24817;-83
2021/10/10 07:04:56;;;;;;;;;;;;;;;2.68;72.47;99346.73;1652896;86;22189;-84
2021/10/10 07:07:23;;;;;;;;;;;;;;;2.79;72.59;99347.77;1649066;86;26050;-84
2021/10/10 07:09:49;;;;;;;;;;;;;;;2.85;72.73;99348.48;1648915;86;24446;-86
2021/10/10 07:12:17;;;;;;;;;;;;;;;2.93;72.87;99346.58;1681926;84;20205;-84
2021/10/10 07:14:46;;;;;;;;;;;;;;;2.99;72.98;99346.02;1645246;86;25022;-84
2021/10/10 07:17:17;;;;;;;;;;;;;;;3.04;73.08;99345.45;1641179;85;21982;-86
2021/10/10 07:19:52;;;;;;;;;;;;;;;3.13;73.20;99348.66;1638902;85;26098;-86
2021/10/10 07:22:28;;;;;;;;;;;;;;;3.23;73.32;99351.41;1640884;85;24499;-84
2021/10/10 07:25:11;;;;;;;;;;;;;;;3.31;73.43;99357.69;1641429;85;20315;-87
2021/10/10 07:27:35;;;;;;;;;;;;;;;3.33;73.54;99354.16;1627988;87;25508;-87
2021/10/10 07:30:03;;;;;;;;;;;;;;;3.40;73.61;99356.59;1628500;87;21988;-87
2021/10/10 07:32:31;;;;;;;;;;;;;;;3.45;73.68;99349.55;1624233;87;25968;-87
2021/10/10 07:34:57;;;;;;;;;;;;;;;3.51;73.77;99347.66;1624694;87;24571;-85
2021/10/10 07:37:28;;;;;;;;;;;;;;;3.59;73.84;99343.14;1625689;87;20282;-85
2021/10/10 07:39:53;;;;;;;;;;;;;;;3.66;73.91;99349.82;1631311;86;24826;-85
2021/10/10 07:42:21;;;;;;;;;;;;;;;3.69;73.95;99346.31;1630168;87;22808;-85
2021/10/10 07:44:51;;;;;;;;;;;;;;;3.84;74.02;99348.91;1631311;87;25885;-83
2021/10/10 07:49:51;;;;;;;;;;;;;;;3.95;74.13;99350.75;1632080;87;20612;-87
2021/10/10 07:52:17;;;;;;;;;;;;;;;4.09;74.20;99348.16;1632272;87;24815;-87
2021/10/10 07:54:46;;;;;;;;;;;;;;;4.17;74.26;99344.91;1626977;87;36803;-87
2021/10/10 07:57:12;;;;;;;;;;;;;;;4.35;74.30;99348.70;1623888;87;26830;-88
2021/10/10 07:59:39;;;;;;;;;;;;;;;4.45;74.36;99341.05;1622926;87;25392;-88
2021/10/10 08:02:06;;;;;;;;;;;;;;;4.53;74.40;99342.94;1634334;87;20232;-85
2021/10/10 08:04:32;;;;;;;;;;;;;;;4.50;74.37;99340.91;1632603;87;24802;-85
2021/10/10 08:06:58;;;;;;;;;;;;;;;4.46;74.31;99331.53;1628345;87;22100;-87
2021/10/10 08:09:24;;;;;;;;;;;;;;;4.41;74.28;99329.53;1628909;87;26022;-87
2021/10/10 08:11:50;;;;;;;;;;;;;;;4.47;74.21;99333.23;1625393;87;20365;-84
2021/10/10 08:14:17;;;;;;;;;;;;;;;4.70;74.27;99337.23;1618430;87;20227;-88
2021/10/10 08:16:44;;;;;;;;;;;;;;;4.87;74.35;99336.69;1588875;88;25009;-84
2021/10/10 08:19:10;;;;;;;;;;;;;;;4.87;74.36;99339.28;1591809;89;22051;-85
2021/10/10 08:21:36;;;;;;;;;;;;;;;4.92;74.35;99335.64;1603833;88;26161;-86
2021/10/10 08:24:03;;;;;;;;;;;;;;;4.92;74.31;99345.17;1576158;90;24430;-86
2021/10/10 08:26:31;;;;;;;;;;;;;;;4.95;74.27;99337.30;1594150;89;20514;-88
2021/10/10 08:28:58;;;;;;;;;;;;;;;5.03;74.25;99340.48;1563962;89;25605;-85
2021/10/10 08:31:26;;;;;;;;;;;;;;;5.07;74.24;99344.69;1600206;88;22102;-88
2021/10/10 08:33:52;;;;;;;;;;;;;;;5.12;74.21;99332.86;1600280;88;26028;-87
2021/10/10 08:36:19;;;;;;;;;;;;;;;5.30;74.24;99334.81;1598302;88;26573;-89
2021/10/10 08:38:45;;;;;;;;;;;;;;;5.42;74.24;99338.29;1598411;88;20306;-84
2021/10/10 08:41:12;;;;;;;;;;;;;;;5.55;74.27;99334.83;1599962;88;24580;-86
2021/10/10 08:43:38;;;;;;;;;;;;;;;5.71;74.29;99339.88;1594397;88;21988;-85
2021/10/10 08:46:05;;;;;;;;;;;;;;;5.79;74.29;99332.19;1605783;88;26045;-86
2021/10/10 08:48:32;;;;;;;;;;;;;;;5.86;74.27;99330.22;1594570;88;24537;-89
2021/10/10 08:50:58;;;;;;;;;;;;;;;5.93;74.25;99329.59;1601185;88;20573;-85
2021/10/10 08:53:25;;;;;;;;;;;;;;;5.98;74.23;99327.22;1599943;88;24956;-86
2021/10/10 08:55:51;;;;;;;;;;;;;;;6.05;74.18;99326.09;1603090;88;21974;-85
2021/10/10 08:58:20;;;;;;;;;;;;;;;5.95;74.06;99322.12;1602610;88;26003;-86
2021/10/10 09:01:04;;;;;;;;;;;;;;;5.94;73.95;99324.80;1601259;88;24684;-85
2021/10/10 09:03:29;;;;;;;;;;;;;;;5.92;73.85;99317.05;1598136;88;20261;-85
2021/10/10 09:05:56;;;;;;;;;;;;;;;5.97;73.78;99321.62;1584916;88;24750;-85
2021/10/10 09:08:23;;;;;;;;;;;;;;;6.07;73.78;99321.66;1601676;88;22728;-84
2021/10/10 09:10:56;;;;;;;;;;;;;;;6.14;73.78;99323.14;1607914;87;26886;-86
2021/10/10 09:13:28;;;;;;;;;;;;;;;6.14;73.71;99318.39;1606093;88;24773;-88
2021/10/10 09:15:54;;;;;;;;;;;;;;;6.15;73.63;99322.24;1573525;89;20200;-86
2021/10/10 09:18:21;;;;;;;;;;;;;;;6.17;73.53;99313.06;1618837;87;24855;-84
2021/10/10 09:20:48;;;;;;;;;;;;;;;6.16;73.45;99316.59;1619463;87;22425;-84
2021/10/10 09:23:18;;;;;;;;;;;;;;;6.13;73.37;99309.75;1637788;87;26240;-87
2021/10/10 09:25:55;;;;;;;;;;;;;;;6.15;73.29;99308.39;1621373;87;24510;-87
2021/10/10 09:28:21;;;;;;;;;;;;;;;6.13;73.22;99312.80;1631869;87;20196;-86
2021/10/10 09:30:49;;;;;;;;;;;;;;;6.13;73.16;99306.30;1637356;87;24833;-85
2021/10/10 09:33:16;;;;;;;;;;;;;;;6.16;73.14;99310.09;1638276;85;22826;-87
2021/10/10 09:35:43;;;;;;;;;;;;;;;6.21;73.12;99298.63;1626367;87;27378;-85
2021/10/10 09:40:47;;;;;;;;;;;;;;;6.42;73.15;99298.69;1627795;87;20300;-88
2021/10/10 09:43:08;;;;;;;;;;;;;;;6.52;73.18;99296.96;1628981;86;24787;-85
2021/10/10 09:45:53;;;;;;;;;;;;;;;6.59;73.20;99302.77;1625005;87;22072;-84
2021/10/10 09:48:14;;;;;;;;;;;;;;;6.64;73.17;99299.08;1648200;85;25917;-87
2021/10/10 09:50:42;;;;;;;;;;;;;;;6.68;73.10;99295.89;1616858;87;24551;-87
2021/10/10 09:53:10;;;;;;;;;;;;;;;6.73;73.04;99291.34;1630263;85;20228;-87
2021/10/10 09:55:38;;;;;;;;;;;;;;;6.76;72.97;99287.34;1626451;87;24835;-84
2021/10/10 09:58:04;;;;;;;;;;;;;;;6.81;72.91;99284.09;1629743;87;21943;-84
2021/10/10 10:00:31;;;;;;;;;;;;;;;6.83;72.82;99283.55;1627257;87;26101;-87
2021/10/10 10:03:12;;;;;;;;;;;;;;;6.87;72.71;99285.14;1632706;87;24651;-87
2021/10/10 10:05:36;;;;;;;;;;;;;;;6.92;72.56;99289.70;1630821;87;20201;-87
2021/10/10 10:08:03;;;;;;;;;;;;;;;6.98;72.48;99290.72;1658526;85;24852;-82
2021/10/10 10:10:30;;;;;;;;;;;;;;;7.04;72.35;99290.92;1638351;87;22075;-84
2021/10/10 10:12:57;;;;;;;;;;;;;;;7.10;72.28;99289.36;1626036;87;26060;-85
2021/10/10 10:15:25;;;;;;;;;;;;;;;7.15;72.21;99299.13;1628466;87;24436;-82
2021/10/10 10:17:53;;;;;;;;;;;;;;;7.19;72.13;99295.95;1617694;87;20314;-83
2021/10/10 10:20:19;;;;;;;;;;;;;;;7.28;72.11;99300.77;1618040;87;24865;-83
2021/10/10 10:22:45;;;;;;;;;;;;;;;7.35;72.08;99292.64;1614649;87;21969;-87
2021/10/10 10:25:11;;;;;;;;;;;;;;;7.39;72.06;99292.89;1622039;87;25984;-86
2021/10/10 10:27:37;;;;;;;;;;;;;;;7.43;72.02;99290.53;1620842;87;24450;-84
2021/10/10 10:30:04;;;;;;;;;;;;;;;7.44;71.92;99289.63;1622675;87;20503;-87
2021/10/10 10:32:31;;;;;;;;;;;;;;;7.47;71.83;99289.96;1617177;87;24952;-86
2021/10/10 10:35:03;;;;;;;;;;;;;;;7.50;71.73;99293.72;1614068;87;22878;-86
2021/10/10 10:37:44;;;;;;;;;;;;;;;7.55;71.62;99295.66;1619011;87;26004;-84
2021/10/10 10:40:17;;;;;;;;;;;;;;;7.62;71.51;99294.49;1609916;87;25359;-86
2021/10/10 10:42:44;;;;;;;;;;;;;;;7.61;71.35;99295.86;1616888;87;20369;-82
2021/10/10 10:45:21;;;;;;;;;;;;;;;7.65;71.15;99291.73;1614134;87;24741;-86
2021/10/10 10:47:48;;;;;;;;;;;;;;;7.67;70.97;99286.02;1621528;87;21990;-84
2021/10/10 10:50:24;;;;;;;;;;;;;;;7.69;70.77;99287.26;1613540;87;26929;-88
2021/10/10 10:53:02;;;;;;;;;;;;;;;7.70;70.59;99289.77;1627369;87;24738;-85
2021/10/10 10:55:30;;;;;;;;;;;;;;;7.69;70.40;99280.26;1616871;87;20607;-84
2021/10/10 10:58:04;;;;;;;;;;;;;;;7.67;70.21;99284.71;1621934;87;24777;-88
2021/10/10 11:00:38;;;;;;;;;;;;;;;7.72;70.11;99277.98;1611865;87;22064;-86
2021/10/10 11:03:08;;;;;;;;;;;;;;;7.80;70.06;99270.69;1615773;87;26726;-87
2021/10/10 11:05:54;;;;;;;;;;;;;;;7.83;69.97;99277.05;1621004;87;24554;-87
2021/10/10 11:08:29;;;;;;;;;;;;;;;7.90;69.93;99268.05;1617654;87;20247;-86
2021/10/10 11:11:03;;;;;;;;;;;;;;;7.98;69.88;99273.28;1613124;87;24842;-87
2021/10/10 11:13:31;;;;;;;;;;;;;;;8.10;69.91;99276.24;1641594;86;22153;-87
2021/10/10 11:15:58;;;;;;;;;;;;;;;8.17;69.86;99276.35;1621027;86;26603;-83
2021/10/10 11:18:26;;;;;;;;;;;;;;;8.17;69.81;99275.90;1616971;86;24728;-83
2021/10/10 11:20:54;;;;;;;;;;;;;;;8.14;69.72;99275.17;1615773;87;20313;-83
2021/10/10 11:23:21;;;;;;;;;;;;;;;8.12;69.64;99273.12;1622203;87;25458;-83
2021/10/10 11:25:49;;;;;;;;;;;;;;;8.15;69.57;99266.45;1623180;87;22151;-88
2021/10/10 11:28:17;;;;;;;;;;;;;;;8.17;69.54;99258.95;1618780;87;26844;-88
2021/10/10 11:30:43;;;;;;;;;;;;;;;8.23;69.50;99262.58;1621864;86;24527;-84
2021/10/10 11:33:09;;;;;;;;;;;;;;;8.34;69.51;99259.49;1616195;87;20285;-84
2021/10/10 11:35:38;;;;;;;;;;;;;;;8.42;69.48;99264.33;1604064;87;24804;-87
2021/10/10 11:38:10;;;;;;;;;;;;;;;8.51;69.48;99258.69;1616273;87;22080;-87
2021/10/10 11:40:39;;;;;;;;;;;;;;;8.64;69.51;99256.70;1621062;87;26223;-84
2021/10/10 11:43:06;;;;;;;;;;;;;;;8.71;69.49;99262.02;1613292;86;24660;-84
2021/10/10 11:45:32;;;;;;;;;;;;;;;8.83;69.47;99262.33;1618652;87;20694;-84
2021/10/10 11:47:58;;;;;;;;;;;;;;;8.92;69.46;99261.41;1618169;86;24801;-84
2021/10/10 11:50:26;;;;;;;;;;;;;;;8.93;69.38;99269.63;1617757;87;22028;-84
2021/10/10 11:53:03;;;;;;;;;;;;;;;8.93;69.27;99269.63;1621326;86;26651;-89
2021/10/10 11:55:34;;;;;;;;;;;;;;;8.98;69.20;99265.48;1612910;87;24473;-88
2021/10/10 11:57:57;;;;;;;;;;;;;;;9.11;69.18;99264.77;1617034;86;20291;-88
2021/10/10 12:00:26;;;;;;;;;;;;;;;9.30;69.20;99258.61;1620007;87;20856;-84
2021/10/10 12:02:53;;;;;;;;;;;;;;;9.39;69.18;99251.14;1620987;87;21579;-84
2021/10/10 12:05:20;;;;;;;;;;;;;;;9.45;69.14;99248.67;1615983;86;26034;-83
2021/10/10 12:07:48;;;;;;;;;;;;;;;9.43;69.02;99250.08;1626131;87;24582;-84
2021/10/10 12:10:19;;;;;;;;;;;;;;;9.41;68.88;99240.16;1616968;87;20455;-84
2021/10/10 12:12:50;;;;;;;;;;;;;;;9.43;68.77;99238.78;1619179;87;24989;-83
2021/10/10 12:15:17;;;;;;;;;;;;;;;9.55;68.70;99238.96;1617979;87;22082;-82
2021/10/10 12:17:44;;;;;;;;;;;;;;;9.60;68.61;99242.17;1616939;87;26036;-83
2021/10/10 12:20:17;;;;;;;;;;;;;;;9.62;68.52;99237.72;1615810;87;24556;-88
2021/10/10 12:22:47;;;;;;;;;;;;;;;9.63;68.36;99235.95;1615847;87;20235;-82
2021/10/10 12:25:20;;;;;;;;;;;;;;;9.66;68.25;99237.93;1619297;87;24762;-83
2021/10/10 12:27:52;;;;;;;;;;;;;;;9.68;68.11;99228.70;1623471;87;22146;-87
2021/10/10 12:30:18;;;;;;;;;;;;;;;9.70;67.97;99220.34;1616577;87;26002;-87
2021/10/10 12:32:44;;;;;;;;;;;;;;;9.76;67.88;99224.39;1615244;86;24424;-82
2021/10/10 12:35:16;;;;;;;;;;;;;;;9.82;67.81;99221.45;1612967;87;20441;-88
2021/10/10 12:37:53;;;;;;;;;;;;;;;9.91;67.76;99218.33;1614906;87;24906;-88
2021/10/10 12:40:24;;;;;;;;;;;;;;;9.92;67.65;99220.02;1608211;87;22091;-83
2021/10/10 12:42:53;;;;;;;;;;;;;;;9.88;67.47;99214.09;1609197;87;21303;-87
2021/10/10 12:45:40;;;;;;;;;;;;;;;9.84;67.25;99212.58;1619415;87;24403;-87
2021/10/10 12:47:49;;;;;;;;;;;;;;;9.82;67.07;99210.50;1619976;87;20265;-83
2021/10/10 12:50:16;;;;;;;;;;;;;;;9.82;66.92;99207.89;1618243;86;24827;-83
2021/10/10 12:52:43;;;;;;;;;;;;;;;9.86;66.77;99209.43;1609879;87;21970;-88
2021/10/10 12:55:11;;;;;;;;;;;;;;;9.87;66.65;99216.81;1621685;86;26004;-83
2021/10/10 12:57:40;;;;;;;;;;;;;;;9.92;66.54;99221.33;1608327;87;24512;-83
2021/10/10 13:00:09;;;;;;;;;;;;;;;9.98;66.47;99213.15;1621851;87;20538;-83
2021/10/10 13:02:35;;;;;;;;;;;;;;;10.05;66.44;99209.24;1614777;86;24836;-83
2021/10/10 13:05:01;;;;;;;;;;;;;;;10.07;66.35;99213.48;1623994;87;22062;-82
2021/10/10 13:07:28;;;;;;;;;;;;;;;10.07;66.23;99208.70;1617442;87;26047;-83